Skip Navigation LinksHome page > Weather > Current weather Skip Navigation Links

Current Weather

San Francisco International, San Francisco

For information only: do not use for flight planning or navigation.
Latest weather
Observation time Saturday, August 24, 2019 9:56 PM PDT
Local time Saturday, August 24, 2019 10:09 PM PDT
Flight conditions Visual Meteorological Conditions
Winds
Wind direction West-Northwest (290°)
Wind speed 16 mph
Visibility 10 mi.
Sky condition
Ceiling unlimited
Cloud layer few clouds 400 ft.
Temperature 61°F
Dewpoint 57°F
Altimeter 29.96 in.Hg
Derived measurements
Relative humidity 87%
Density altitude 319 ft.
Sea-level pressure 29.96 in.Hg
Remarks
Automated weather observing station with precipitation discriminator.
METAR KSFO 250456Z 29014KT 10SM FEW004 16/14 A2996 RMK AO2 SLP144 T01610139

Settings

Location code

InnerDrive.Weather 4.0.6770.0 Release CLR 4.0.30319.42000
Copyright ©2018 Inner Drive Technology. All rights reserved. Portions Copyright ©1986-2018 David Braverman.

Find weather

Site navigation


Skip Navigation Links

Place info

Page info

PayPal - The safer, easier way to pay online!

Return home.

Copyright ©2019 Inner Drive Technology. Purveyors of fine, hand-crafted computer software. Page printed 2019-08-25T05:09:24 UTC.